createdAt,value
2023-01-13T00:01:44.668Z,91909.56
2023-01-13T00:05:06.743Z,91912.91
2023-01-13T00:08:21.766Z,91918.34
2023-01-13T00:11:43.652Z,91927.78
2023-01-13T00:15:05.677Z,91924.72
2023-01-13T00:18:27.683Z,91922.00
2023-01-13T00:21:43.283Z,91929.75
2023-01-13T00:25:07.671Z,91930.34
2023-01-13T00:28:29.662Z,91930.94
2023-01-13T00:31:52.690Z,91929.44
2023-01-13T00:35:07.752Z,91936.00
2023-01-13T00:38:29.640Z,91936.22
2023-01-13T00:42:03.208Z,91932.00
2023-01-13T00:45:24.653Z,91929.66
2023-01-13T00:48:46.632Z,91933.88
2023-01-13T00:52:01.907Z,91929.34
2023-01-13T00:55:23.668Z,91929.81
2023-01-13T00:58:45.673Z,91924.03
2023-01-13T01:02:00.885Z,91923.75
2023-01-13T01:05:22.636Z,91919.59
2023-01-13T01:08:44.623Z,91933.25
2023-01-13T01:12:07.639Z,91920.69
2023-01-13T01:15:29.647Z,91925.44
2023-01-13T01:18:45.920Z,91915.38
2023-01-13T01:22:07.643Z,91917.34
2023-01-13T01:25:29.632Z,91915.56
2023-01-13T01:28:44.692Z,91910.38
2023-01-13T01:31:59.650Z,91903.19
2023-01-13T01:35:21.604Z,91911.38
2023-01-13T01:38:36.891Z,91903.47
2023-01-13T01:42:16.598Z,91907.41
2023-01-13T01:45:33.777Z,91904.06
2023-01-13T01:48:55.592Z,91902.09
2023-01-13T01:52:22.586Z,91895.22
2023-01-13T01:55:44.623Z,91899.75
2023-01-13T01:59:07.594Z,91899.81
2023-01-13T02:02:22.923Z,91895.13
2023-01-13T02:05:45.636Z,91899.84
2023-01-13T02:09:07.612Z,91891.16
2023-01-13T02:12:34.731Z,91894.59
2023-01-13T02:16:14.660Z,91893.31
2023-01-13T02:19:56.608Z,91893.22
2023-01-13T02:23:40.798Z,91897.47
2023-01-13T02:27:21.608Z,91887.47
2023-01-13T02:31:07.585Z,91894.25
2023-01-13T02:34:27.693Z,91893.56
2023-01-13T02:37:50.610Z,91894.44
2023-01-13T02:41:44.558Z,91895.59
2023-01-13T02:45:13.577Z,91895.81
2023-01-13T02:48:36.584Z,91898.75
2023-01-13T02:51:59.584Z,91891.69
2023-01-13T02:55:24.606Z,91895.00
2023-01-13T02:58:48.591Z,91896.78
2023-01-13T03:02:10.739Z,91902.41
2023-01-13T03:05:33.588Z,91899.66
2023-01-13T03:08:54.680Z,91910.97
2023-01-13T03:12:27.555Z,91913.63
2023-01-13T03:16:07.566Z,91906.22
2023-01-13T03:19:31.609Z,91907.31
2023-01-13T03:22:52.348Z,91905.94
2023-01-13T03:26:22.620Z,91913.81
2023-01-13T03:29:44.545Z,91912.16
2023-01-13T03:33:03.445Z,91911.94
2023-01-13T03:36:28.623Z,91920.19
2023-01-13T03:39:53.528Z,91911.16
2023-01-13T03:43:40.542Z,91918.25
2023-01-13T03:47:02.606Z,91913.22
2023-01-13T03:50:46.606Z,91916.06
2023-01-13T03:54:12.524Z,91920.41
2023-01-13T03:57:36.562Z,91921.28
2023-01-13T04:01:24.695Z,91929.56
2023-01-13T04:04:49.541Z,91918.72
2023-01-13T04:08:23.561Z,91928.16
2023-01-13T04:11:51.545Z,91921.09
2023-01-13T04:15:07.044Z,91927.59
2023-01-13T04:18:24.539Z,91927.00
2023-01-13T04:21:39.621Z,91925.13
2023-01-13T04:25:01.579Z,91928.78
2023-01-13T04:28:24.517Z,91930.53
2023-01-13T04:31:46.550Z,91931.91
2023-01-13T04:35:01.634Z,91931.44
2023-01-13T04:38:24.549Z,91924.34
2023-01-13T04:42:04.530Z,91934.09
2023-01-13T04:45:26.537Z,91926.47
2023-01-13T04:48:41.601Z,91934.75
2023-01-13T04:52:03.494Z,91932.63
2023-01-13T04:55:26.568Z,91928.56
2023-01-13T04:58:41.778Z,91933.19
2023-01-13T05:02:03.530Z,91930.91
2023-01-13T05:05:25.509Z,91933.69
2023-01-13T05:08:40.653Z,91935.16
2023-01-13T05:12:20.573Z,91932.69
2023-01-13T05:16:00.595Z,91934.44
2023-01-13T05:19:15.723Z,91932.16
2023-01-13T05:22:55.486Z,91940.66
2023-01-13T05:26:17.476Z,91940.03
2023-01-13T05:29:39.474Z,91951.50
2023-01-13T05:32:54.711Z,91950.84
2023-01-13T05:36:16.445Z,91946.44
2023-01-13T05:39:58.481Z,91952.69
2023-01-13T05:43:31.465Z,91949.75
2023-01-13T05:46:53.540Z,91944.44
2023-01-13T05:50:08.620Z,91955.03
2023-01-13T05:53:30.492Z,91948.59
2023-01-13T05:56:52.463Z,91951.09
2023-01-13T06:00:15.529Z,91948.41
2023-01-13T06:03:37.494Z,91955.81
2023-01-13T06:06:59.520Z,91962.00
2023-01-13T06:10:14.604Z,91968.75
2023-01-13T06:13:37.492Z,91966.28
2023-01-13T06:16:59.459Z,91972.38
2023-01-13T06:20:15.333Z,91973.31
2023-01-13T06:23:41.456Z,91976.19
2023-01-13T06:27:03.464Z,91973.38
2023-01-13T06:30:25.477Z,91970.41
2023-01-13T06:33:52.551Z,91967.06
2023-01-13T06:37:16.472Z,91976.28
2023-01-13T06:40:38.427Z,91976.09
2023-01-13T06:44:00.469Z,91975.03
2023-01-13T06:47:22.521Z,91973.94
2023-01-13T06:50:44.454Z,91974.81
2023-01-13T06:54:06.466Z,91974.25
2023-01-13T06:57:21.576Z,91974.94
2023-01-13T07:00:43.466Z,91970.88
2023-01-13T07:04:05.411Z,91965.50
2023-01-13T07:07:27.466Z,91976.28
2023-01-13T07:10:42.626Z,91975.66
2023-01-13T07:14:22.390Z,91973.81
2023-01-13T07:17:44.464Z,91976.06
2023-01-13T07:21:10.444Z,91972.56
2023-01-13T07:24:32.438Z,91973.41
2023-01-13T07:27:54.469Z,91970.09
2023-01-13T07:31:16.462Z,91973.94
2023-01-13T07:34:31.400Z,91974.72
2023-01-13T07:37:53.474Z,91970.59
2023-01-13T07:41:27.115Z,91968.84
2023-01-13T07:44:48.436Z,91976.28
2023-01-13T07:48:10.542Z,91968.31
2023-01-13T07:51:25.697Z,91973.94
2023-01-13T07:54:47.439Z,91972.19
2023-01-13T07:58:02.578Z,91969.91
2023-01-13T08:01:25.501Z,91981.34
2023-01-13T08:04:40.680Z,91977.59
2023-01-13T08:08:02.420Z,91977.50
2023-01-13T08:11:24.424Z,91976.31
2023-01-13T08:14:46.428Z,91980.44
2023-01-13T08:18:08.410Z,91973.94
2023-01-13T08:21:30.375Z,91988.31
2023-01-13T08:24:52.343Z,91981.25
2023-01-13T08:28:14.452Z,91986.13
2023-01-13T08:31:29.647Z,91990.47
2023-01-13T08:34:51.432Z,91985.72
2023-01-13T08:38:08.044Z,91984.03
2023-01-13T08:41:49.402Z,91981.03
2023-01-13T08:45:05.262Z,91973.47
2023-01-13T08:48:28.587Z,91968.81
2023-01-13T08:51:52.374Z,91974.25
2023-01-13T08:55:07.455Z,91966.09
2023-01-13T08:58:29.374Z,91964.78
2023-01-13T09:01:44.592Z,91964.94
2023-01-13T09:05:09.376Z,91963.69
2023-01-13T09:08:31.414Z,91959.09
2023-01-13T09:12:06.891Z,91955.28
2023-01-13T09:15:28.424Z,91951.28
2023-01-13T09:18:50.358Z,91953.28
2023-01-13T09:22:12.380Z,91956.91
2023-01-13T09:25:34.350Z,91948.50
2023-01-13T09:28:56.347Z,91945.41
2023-01-13T09:32:18.359Z,91947.22
2023-01-13T09:35:40.385Z,91946.63
2023-01-13T09:38:55.570Z,91949.63
2023-01-13T09:42:39.323Z,91945.00
2023-01-13T09:46:10.438Z,91946.94
2023-01-13T09:49:32.475Z,91947.44
2023-01-13T09:52:54.372Z,91943.94
2023-01-13T09:56:09.480Z,91949.03
2023-01-13T09:59:33.405Z,91941.09
2023-01-13T10:03:03.472Z,91946.44
2023-01-13T10:06:35.366Z,91950.75
2023-01-13T10:10:03.282Z,91950.16
2023-01-13T10:13:22.357Z,91944.84
2023-01-13T10:16:51.314Z,91942.84
2023-01-13T10:20:15.922Z,91942.91
2023-01-13T10:24:06.350Z,91938.44
2023-01-13T10:27:37.325Z,91930.97
2023-01-13T10:30:53.581Z,91920.75
2023-01-13T10:34:15.343Z,91932.63
2023-01-13T10:37:31.701Z,91925.69
2023-01-13T10:41:04.304Z,91931.78
2023-01-13T10:44:30.321Z,91924.34
2023-01-13T10:48:09.329Z,91933.72
2023-01-13T10:51:36.337Z,91937.22
2023-01-13T10:55:01.300Z,91922.75
2023-01-13T10:58:27.829Z,91925.69
2023-01-13T11:01:51.965Z,91918.84
2023-01-13T11:05:16.278Z,91921.47
2023-01-13T11:08:41.153Z,91926.69
2023-01-13T11:12:03.283Z,91911.03
2023-01-13T11:15:28.328Z,91919.78
2023-01-13T11:19:02.113Z,91916.84
2023-01-13T11:22:27.333Z,91911.59
2023-01-13T11:25:54.308Z,91907.19
2023-01-13T11:29:15.040Z,91901.09
2023-01-13T11:32:37.333Z,91901.00
2023-01-13T11:36:01.304Z,91899.22
2023-01-13T11:39:31.250Z,91901.50
2023-01-13T11:42:56.288Z,91902.38
2023-01-13T11:46:12.333Z,91907.41
2023-01-13T11:49:36.320Z,91898.19
2023-01-13T11:53:10.549Z,91902.47
2023-01-13T11:56:34.257Z,91907.53
2023-01-13T11:59:59.292Z,91901.78
2023-01-13T12:03:26.841Z,91899.06
2023-01-13T12:06:50.225Z,91900.28
2023-01-13T12:10:32.292Z,91903.78
2023-01-13T12:13:47.342Z,91891.16
2023-01-13T12:17:11.273Z,91896.88
2023-01-13T12:20:36.274Z,91892.31
2023-01-13T12:23:58.232Z,91889.34
2023-01-13T12:27:38.210Z,91892.53
2023-01-13T12:30:59.157Z,91894.34
2023-01-13T12:34:27.239Z,91896.34
2023-01-13T12:37:49.193Z,91899.22
2023-01-13T12:41:17.250Z,91893.88
2023-01-13T12:44:39.243Z,91899.84
2023-01-13T12:47:54.395Z,91905.47
2023-01-13T12:51:27.266Z,91905.78
2023-01-13T12:54:48.341Z,91914.53
2023-01-13T12:58:10.275Z,91905.81
2023-01-13T13:01:32.395Z,91912.38
2023-01-13T13:04:51.974Z,91907.31
2023-01-13T13:08:24.223Z,91917.44
2023-01-13T13:12:07.235Z,91914.69
2023-01-13T13:15:31.355Z,91922.63
2023-01-13T13:18:53.208Z,91914.31
2023-01-13T13:22:21.269Z,91916.63
2023-01-13T13:25:43.227Z,91917.00
2023-01-13T13:29:16.310Z,91918.41
2023-01-13T13:32:47.207Z,91912.00
2023-01-13T13:36:09.326Z,91911.69
2023-01-13T13:39:52.234Z,91909.25
2023-01-13T13:43:25.717Z,91903.00
2023-01-13T13:46:54.228Z,91908.09
2023-01-13T13:50:20.246Z,91910.13
2023-01-13T13:53:40.645Z,91914.41
2023-01-13T13:57:03.195Z,91916.47
2023-01-13T14:00:30.157Z,91914.56
2023-01-13T14:03:53.188Z,91911.97
2023-01-13T14:07:18.507Z,91916.44
2023-01-13T14:10:50.193Z,91919.41
2023-01-13T14:14:13.176Z,91924.28
2023-01-13T14:17:33.235Z,91928.44
2023-01-13T14:21:04.176Z,91935.13
2023-01-13T14:24:22.580Z,91929.22
2023-01-13T14:27:49.109Z,91934.97
2023-01-13T14:31:11.153Z,91933.06
2023-01-13T14:34:32.385Z,91926.34
2023-01-13T14:37:57.063Z,91935.16
2023-01-13T14:41:17.733Z,91929.19
2023-01-13T14:44:39.123Z,91929.31
2023-01-13T14:47:54.385Z,91925.91
2023-01-13T14:51:17.095Z,91929.00
2023-01-13T14:54:50.101Z,91936.63
2023-01-13T14:58:50.148Z,91943.94
2023-01-13T15:02:24.486Z,91941.84
2023-01-13T15:05:49.109Z,91937.38
2023-01-13T15:09:18.048Z,91932.97
2023-01-13T15:12:49.071Z,91940.56
2023-01-13T15:16:21.151Z,91938.59
2023-01-13T15:19:36.164Z,91944.34
2023-01-13T15:22:59.081Z,91941.75
2023-01-13T15:26:30.050Z,91949.63
2023-01-13T15:29:52.090Z,91948.09
2023-01-13T15:33:14.112Z,91953.44
2023-01-13T15:36:37.028Z,91958.81
2023-01-13T15:39:52.104Z,91956.88
2023-01-13T15:43:37.087Z,91954.88
2023-01-13T15:46:59.061Z,91953.41
2023-01-13T15:50:15.239Z,91952.31
2023-01-13T15:53:37.046Z,91959.38
2023-01-13T15:56:52.836Z,91960.84
2023-01-13T16:00:15.078Z,91963.66
2023-01-13T16:03:37.030Z,91964.16
2023-01-13T16:06:59.044Z,91968.25
2023-01-13T16:10:26.049Z,91964.50
2023-01-13T16:13:48.044Z,91966.50
2023-01-13T16:17:03.990Z,91970.59
2023-01-13T16:20:27.015Z,91966.63
2023-01-13T16:23:49.079Z,91975.56
2023-01-13T16:27:04.153Z,91966.53
2023-01-13T16:30:36.042Z,91963.81
2023-01-13T16:33:51.188Z,91968.81
2023-01-13T16:37:17.072Z,91964.91
2023-01-13T16:40:39.193Z,91968.16
2023-01-13T16:44:01.062Z,91964.53
2023-01-13T16:47:31.115Z,91965.63
2023-01-13T16:50:46.693Z,91961.03
2023-01-13T16:54:08.054Z,91966.53
2023-01-13T16:57:23.334Z,91965.94
2023-01-13T17:00:45.097Z,91964.41
2023-01-13T17:04:07.084Z,91957.81
2023-01-13T17:07:23.179Z,91957.63
2023-01-13T17:10:45.103Z,91961.56
2023-01-13T17:14:18.231Z,91955.88
2023-01-13T17:17:34.267Z,91951.47
2023-01-13T17:20:56.054Z,91951.59
2023-01-13T17:24:19.097Z,91957.75
2023-01-13T17:27:41.074Z,91955.75
2023-01-13T17:30:56.284Z,91962.59
2023-01-13T17:34:18.134Z,91962.53
2023-01-13T17:37:40.060Z,91966.41
2023-01-13T17:41:02.091Z,91965.56
2023-01-13T17:44:18.232Z,91957.50
2023-01-13T17:47:40.090Z,91973.31
2023-01-13T17:51:02.047Z,91962.59
2023-01-13T17:54:17.162Z,91971.63
2023-01-13T17:57:39.036Z,91962.84
2023-01-13T18:00:54.183Z,91966.03
2023-01-13T18:04:23.059Z,91953.47
2023-01-13T18:07:45.094Z,91963.25
2023-01-13T18:11:00.788Z,91960.25
2023-01-13T18:14:23.025Z,91960.38
2023-01-13T18:17:38.233Z,91953.50
2023-01-13T18:21:18.016Z,91956.97
2023-01-13T18:25:05.004Z,91968.03
2023-01-13T18:28:20.257Z,91968.66
2023-01-13T18:31:42.007Z,91966.41
2023-01-13T18:35:06.532Z,91977.03
2023-01-13T18:38:26.358Z,91972.16
2023-01-13T18:42:06.013Z,91968.13
2023-01-13T18:45:28.031Z,91973.19
2023-01-13T18:48:49.994Z,91979.66
2023-01-13T18:52:12.071Z,91976.53
2023-01-13T18:55:34.998Z,91980.00
2023-01-13T18:58:52.112Z,91971.47
2023-01-13T19:02:20.119Z,91972.34
2023-01-13T19:05:35.214Z,91975.66
2023-01-13T19:09:00.016Z,91978.63
2023-01-13T19:12:23.027Z,91978.63
2023-01-13T19:15:45.031Z,91972.50
2023-01-13T19:19:00.091Z,91966.28
2023-01-13T19:22:24.038Z,91965.38
2023-01-13T19:25:39.176Z,91968.28
2023-01-13T19:29:01.027Z,91968.53
2023-01-13T19:32:16.203Z,91974.25
2023-01-13T19:35:37.975Z,91976.22
2023-01-13T19:39:00.010Z,91978.31
2023-01-13T19:42:33.904Z,91971.63
2023-01-13T19:45:56.050Z,91977.16
2023-01-13T19:49:17.957Z,91978.00
2023-01-13T19:52:40.005Z,91972.00
2023-01-13T19:55:55.231Z,91972.56
2023-01-13T19:59:17.000Z,91974.88
2023-01-13T20:02:32.371Z,91976.75
2023-01-13T20:05:53.982Z,91971.06
2023-01-13T20:09:09.200Z,91971.06
2023-01-13T20:12:31.029Z,91965.69
2023-01-13T20:15:52.991Z,91960.03
2023-01-13T20:19:14.929Z,91952.78
2023-01-13T20:22:36.909Z,91958.00
2023-01-13T20:25:58.969Z,91957.50
2023-01-13T20:29:20.954Z,91953.38
2023-01-13T20:32:42.979Z,91955.75
2023-01-13T20:36:04.945Z,91949.47
2023-01-13T20:39:21.086Z,91950.50
2023-01-13T20:42:51.974Z,91954.06
2023-01-13T20:46:16.909Z,91942.56
2023-01-13T20:49:38.937Z,91952.72
2023-01-13T20:53:00.964Z,91953.53
2023-01-13T20:56:16.243Z,91954.09
2023-01-13T20:59:37.927Z,91950.44
2023-01-13T21:02:59.949Z,91945.13
2023-01-13T21:06:26.971Z,91945.59
2023-01-13T21:09:42.153Z,91934.09
2023-01-13T21:13:21.932Z,91935.97
2023-01-13T21:16:37.165Z,91945.38
2023-01-13T21:19:51.883Z,91941.19
2023-01-13T21:23:14.946Z,91938.56
2023-01-13T21:26:30.664Z,91937.25
2023-01-13T21:29:51.946Z,91930.69
2023-01-13T21:33:13.933Z,91934.19
2023-01-13T21:36:29.074Z,91941.63
2023-01-13T21:39:50.933Z,91941.00
2023-01-13T21:43:24.749Z,91943.28
2023-01-13T21:47:04.856Z,91939.84
2023-01-13T21:50:27.868Z,91948.72
2023-01-13T21:53:49.901Z,91947.25
2023-01-13T21:57:05.052Z,91949.25
2023-01-13T22:00:27.886Z,91950.56
2023-01-13T22:04:07.904Z,91946.00
2023-01-13T22:07:29.901Z,91952.13
2023-01-13T22:11:03.900Z,91946.44
2023-01-13T22:14:19.354Z,91944.50
2023-01-13T22:17:41.940Z,91949.03
2023-01-13T22:21:06.880Z,91951.09
2023-01-13T22:24:28.926Z,91945.84
2023-01-13T22:27:45.005Z,91943.41
2023-01-13T22:31:06.847Z,91951.34
2023-01-13T22:34:28.864Z,91952.13
2023-01-13T22:37:50.897Z,91948.59
2023-01-13T22:41:13.894Z,91940.56
2023-01-13T22:44:35.915Z,91937.03
2023-01-13T22:47:57.875Z,91939.25
2023-01-13T22:51:12.958Z,91939.28
2023-01-13T22:54:34.928Z,91938.50
2023-01-13T22:57:49.930Z,91934.28
2023-01-13T23:01:15.961Z,91934.03
2023-01-13T23:04:37.913Z,91928.88
2023-01-13T23:07:59.901Z,91935.72
2023-01-13T23:11:27.858Z,91936.25
2023-01-13T23:14:49.911Z,91938.50
2023-01-13T23:18:05.036Z,91928.28
2023-01-13T23:21:30.837Z,91928.69
2023-01-13T23:24:52.858Z,91926.47
2023-01-13T23:28:16.847Z,91930.81
2023-01-13T23:31:38.859Z,91927.91
2023-01-13T23:35:00.860Z,91924.78
2023-01-13T23:38:22.805Z,91930.22
2023-01-13T23:41:44.870Z,91923.59
2023-01-13T23:45:06.832Z,91919.94
2023-01-13T23:48:22.091Z,91921.75
2023-01-13T23:51:43.818Z,91915.22
2023-01-13T23:55:05.805Z,91911.94
2023-01-13T23:58:27.827Z,91924.44
